Time;durP1;ratioP1;P1;durP2;ratioP2;P2;SDS_P1;SDS_P2;PMS_P1;PMS_P2;Temp;Humidity;BMP_temperature;BMP_pressure;BME280_temperature;BME280_humidity;BME280_pressure;Samples;Min_cycle;Max_cycle;Signal;HPM_P1;HPM_P2
2021/10/07 00:02:36;;;;;;;8.13;7.30;;;;;;;12.04;100.00;101338.75;20995889;28;20711;-61
2021/10/07 00:12:38;;;;;;;7.70;7.00;;;;;;;12.03;100.00;101335.22;20995137;28;20228;-60
2021/10/07 00:22:43;;;;;;;7.30;6.60;;;;;;;11.99;100.00;101322.09;20994361;28;20223;-60
2021/10/07 00:32:52;;;;;;;8.03;7.00;;;;;;;11.92;100.00;101326.91;20993337;28;20703;-60
2021/10/07 00:42:55;;;;;;;7.60;6.47;;;;;;;11.88;100.00;101323.53;20992014;28;20214;-60
2021/10/07 00:52:58;;;;;;;7.70;6.03;;;;;;;11.87;100.00;101323.63;20991881;28;20220;-60
2021/10/07 01:03:02;;;;;;;8.10;6.57;;;;;;;11.77;100.00;101323.25;20990692;28;20222;-66
2021/10/07 01:13:06;;;;;;;7.30;6.23;;;;;;;11.78;100.00;101327.66;20989747;28;20671;-62
2021/10/07 01:23:09;;;;;;;9.97;5.90;;;;;;;11.80;100.00;101351.63;20989281;28;20707;-64
2021/10/07 01:33:12;;;;;;;6.97;6.00;;;;;;;11.80;100.00;101348.97;20988758;28;20645;-64
2021/10/07 01:43:16;;;;;;;7.00;6.30;;;;;;;11.71;100.00;101347.59;20975251;28;20717;-61
2021/10/07 01:53:18;;;;;;;7.20;6.50;;;;;;;11.60;100.00;101352.63;20985821;28;20337;-59
2021/10/07 02:03:22;;;;;;;7.30;6.10;;;;;;;11.48;100.00;101355.94;20986969;28;20737;-65
2021/10/07 02:13:24;;;;;;;8.23;6.23;;;;;;;11.38;100.00;101368.06;20986137;28;20226;-66
2021/10/07 02:23:28;;;;;;;7.07;5.80;;;;;;;11.34;100.00;101378.06;20984946;28;20225;-62
2021/10/07 02:33:30;;;;;;;7.07;6.47;;;;;;;11.26;100.00;101388.25;20985618;28;20320;-61
2021/10/07 02:43:34;;;;;;;9.10;6.63;;;;;;;11.25;100.00;101393.66;20985437;28;20246;-63
2021/10/07 02:53:37;;;;;;;6.23;5.67;;;;;;;11.24;100.00;101410.63;20983820;28;20293;-61
2021/10/07 03:03:41;;;;;;;6.97;6.00;;;;;;;11.23;100.00;101384.88;20992086;28;20223;-65
2021/10/07 03:13:43;;;;;;;6.63;5.90;;;;;;;11.18;100.00;101426.03;20997644;28;20305;-63
2021/10/07 03:23:47;;;;;;;6.87;6.03;;;;;;;11.07;100.00;101422.16;20998671;28;20226;-62
2021/10/07 03:33:51;;;;;;;6.97;6.37;;;;;;;10.93;100.00;101425.50;20998126;28;20309;-62
2021/10/07 03:43:54;;;;;;;7.47;6.13;;;;;;;10.79;100.00;101439.50;20986274;28;20215;-60
2021/10/07 03:53:56;;;;;;;7.23;6.53;;;;;;;10.72;100.00;101442.56;20996381;28;20230;-61
2021/10/07 04:04:00;;;;;;;7.60;6.70;;;;;;;10.57;100.00;101441.44;20995940;28;20218;-62
2021/10/07 04:14:02;;;;;;;8.47;6.90;;;;;;;10.46;100.00;101452.63;20994551;28;20233;-61
2021/10/07 04:24:07;;;;;;;6.90;6.30;;;;;;;10.35;100.00;101465.59;20993963;28;20599;-62
2021/10/07 04:34:09;;;;;;;7.93;6.60;;;;;;;10.25;100.00;101485.63;20993210;28;20215;-59
2021/10/07 04:44:13;;;;;;;9.93;6.97;;;;;;;10.23;100.00;101508.81;20981200;28;20229;-60
2021/10/07 04:54:15;;;;;;;13.40;6.63;;;;;;;10.21;100.00;101532.03;20951001;28;20264;-60
2021/10/07 05:04:19;;;;;;;9.70;7.13;;;;;;;10.19;100.00;101544.56;20911840;28;20318;-61
2021/10/07 05:14:21;;;;;;;7.17;6.50;;;;;;;10.17;100.00;101562.41;20884787;28;20696;-61
2021/10/07 05:24:29;;;;;;;8.10;6.73;;;;;;;10.21;100.00;101560.50;20884247;28;20233;-60
2021/10/07 05:34:38;;;;;;;7.70;6.70;;;;;;;10.12;100.00;101575.06;20882490;28;20892;-63
2021/10/07 05:44:42;;;;;;;8.70;7.20;;;;;;;10.11;100.00;101600.88;20879988;28;20254;-63
2021/10/07 05:54:44;;;;;;;8.13;6.97;;;;;;;10.31;100.00;101608.06;20882257;28;20223;-65
2021/10/07 06:04:49;;;;;;;13.57;6.77;;;;;;;10.47;100.00;101624.28;20882245;28;20326;-64
2021/10/07 06:14:52;;;;;;;7.93;6.60;;;;;;;10.91;100.00;101624.13;20876906;28;20219;-62
2021/10/07 06:24:55;;;;;;;8.43;6.77;;;;;;;11.17;100.00;101632.72;20882027;28;20246;-64
2021/10/07 06:34:59;;;;;;;8.87;6.93;;;;;;;11.33;100.00;101642.72;20881792;28;20223;-67
2021/10/07 06:45:05;;;;;;;7.70;6.40;;;;;;;11.17;100.00;101663.91;20891462;28;20231;-63
2021/10/07 06:55:10;;;;;;;8.40;6.60;;;;;;;11.17;100.00;101680.81;20898146;28;20304;-64
2021/10/07 07:05:14;;;;;;;8.00;6.53;;;;;;;11.41;100.00;101672.59;20897733;28;20265;-63
2021/10/07 07:15:16;;;;;;;9.37;6.63;;;;;;;11.50;100.00;101690.88;20898634;28;20263;-64
2021/10/07 07:25:21;;;;;;;9.57;6.30;;;;;;;11.73;100.00;101696.03;20897846;28;20237;-64
2021/10/07 07:35:24;;;;;;;7.40;6.33;;;;;;;11.85;100.00;101695.47;20898252;28;20357;-62
2021/10/07 07:45:29;;;;;;;8.23;6.20;;;;;;;12.02;100.00;101707.19;20895464;28;20231;-64
2021/10/07 07:55:34;;;;;;;7.07;6.37;;;;;;;12.16;100.00;101710.06;20897245;28;20262;-62
2021/10/07 08:05:38;;;;;;;8.27;6.07;;;;;;;12.32;100.00;101716.38;20896135;28;20223;-63
2021/10/07 08:15:40;;;;;;;6.37;5.73;;;;;;;12.82;100.00;101729.06;20894075;28;20233;-62
2021/10/07 08:25:45;;;;;;;7.60;5.90;;;;;;;13.13;100.00;101731.91;20895544;28;20646;-63
2021/10/07 08:35:50;;;;;;;9.70;5.90;;;;;;;13.34;97.89;101735.28;20891382;28;20234;-63
2021/10/07 08:45:54;;;;;;;8.00;5.93;;;;;;;13.42;90.62;101733.06;20889544;28;20225;-64
2021/10/07 08:55:56;;;;;;;11.97;5.67;;;;;;;13.81;100.00;101735.41;20890114;28;20318;-64
2021/10/07 09:06:11;;;;;;;5.90;5.23;;;;;;;13.61;82.54;101733.81;20887751;28;20219;-62
2021/10/07 09:16:14;;;;;;;12.83;5.80;;;;;;;13.64;94.28;101733.63;20888161;28;20265;-64
2021/10/07 09:26:17;;;;;;;7.33;5.40;;;;;;;13.26;99.50;101741.06;20886512;28;20235;-63
2021/10/07 09:36:21;;;;;;;7.77;5.60;;;;;;;13.23;99.13;101759.13;20886910;28;20241;-63
2021/10/07 09:46:42;;;;;;;9.87;5.30;;;;;;;13.68;88.38;101745.06;20886335;28;20222;-62
2021/10/07 09:56:54;;;;;;;5.50;5.00;;;;;;;13.99;92.25;101755.88;20883472;28;20239;-62
2021/10/07 10:06:58;;;;;;;7.03;4.87;;;;;;;13.95;100.00;101732.81;20871336;28;20253;-62
2021/10/07 10:17:02;;;;;;;5.73;4.93;;;;;;;14.34;99.78;101744.94;20884997;28;20219;-63
2021/10/07 10:27:06;;;;;;;7.03;4.93;;;;;;;14.59;91.88;101741.75;20883268;28;20291;-63
2021/10/07 10:37:10;;;;;;;8.20;5.07;;;;;;;14.86;92.86;101733.84;20882758;28;20597;-63
2021/10/07 10:47:22;;;;;;;7.27;4.60;;;;;;;14.98;83.91;101730.44;20884115;28;20330;-63
2021/10/07 10:57:29;;;;;;;7.20;4.90;;;;;;;15.17;87.38;101731.06;20884538;28;20723;-62
2021/10/07 11:07:35;;;;;;;6.87;4.53;;;;;;;15.44;88.94;101734.75;20890197;28;20277;-63
2021/10/07 11:17:40;;;;;;;5.80;4.40;;;;;;;15.52;87.73;101726.19;20884175;28;20740;-63
2021/10/07 11:27:44;;;;;;;5.63;4.47;;;;;;;15.65;88.12;101723.63;20893356;28;20782;-66
2021/10/07 11:38:07;;;;;;;7.70;3.90;;;;;;;15.77;72.45;101728.25;20897238;28;20326;-64
2021/10/07 11:48:11;;;;;;;5.27;4.00;;;;;;;15.91;79.33;101722.84;20880255;28;20233;-63
2021/10/07 11:58:13;;;;;;;7.30;3.87;;;;;;;15.92;83.17;101731.78;20894629;28;21180;-63
2021/10/07 12:08:18;;;;;;;5.43;3.73;;;;;;;16.05;80.99;101735.44;20894422;28;20231;-63
2021/10/07 12:18:23;;;;;;;5.97;3.97;;;;;;;16.19;84.85;101744.31;20894492;28;20231;-62
2021/10/07 12:28:27;;;;;;;6.17;4.47;;;;;;;16.42;86.10;101745.50;20891968;28;20630;-63
2021/10/07 12:38:31;;;;;;;13.43;4.40;;;;;;;16.48;78.83;101738.84;20882525;28;20242;-63
2021/10/07 12:48:55;;;;;;;6.27;4.43;;;;;;;16.46;64.67;101751.56;20889650;28;20273;-63
2021/10/07 12:59:02;;;;;;;8.97;3.67;;;;;;;16.43;77.21;101757.16;20888309;28;20703;-63
2021/10/07 13:09:06;;;;;;;8.67;3.70;;;;;;;16.36;76.56;101739.66;20897162;28;20256;-63
2021/10/07 13:19:08;;;;;;;7.93;3.87;;;;;;;16.29;79.86;101738.34;20907204;28;20257;-62
2021/10/07 13:29:12;;;;;;;5.47;3.57;;;;;;;16.24;75.25;101740.47;20928868;28;20773;-68
2021/10/07 13:39:15;;;;;;;4.73;3.63;;;;;;;16.11;71.20;101749.34;20985682;28;20238;-67
2021/10/07 13:49:19;;;;;;;6.73;3.23;;;;;;;16.09;76.44;101750.41;20986275;28;20831;-62
2021/10/07 13:59:21;;;;;;;7.57;3.57;;;;;;;15.90;71.60;101760.63;20986509;28;20640;-69
2021/10/07 14:09:25;;;;;;;6.33;3.37;;;;;;;15.52;76.17;101785.38;20987087;28;20585;-62
2021/10/07 14:29:28;;;;;;;6.17;3.00;;;;;;;14.90;78.96;101791.88;20986114;27;20613;-63
2021/10/07 14:39:32;;;;;;;4.67;2.97;;;;;;;14.71;83.51;101808.22;20974836;28;20222;-69
2021/10/07 14:49:35;;;;;;;6.20;3.00;;;;;;;14.46;75.75;101808.75;20974554;28;20622;-62
2021/10/07 14:59:38;;;;;;;4.50;3.43;;;;;;;14.32;79.82;101838.16;21011912;27;20233;-62
2021/10/07 15:09:42;;;;;;;9.47;3.53;;;;;;;14.11;80.58;101850.09;21056178;27;20643;-61
2021/10/07 15:19:44;;;;;;;7.93;3.50;;;;;;;13.79;81.76;101860.72;21042553;27;20245;-62
2021/10/07 15:29:49;;;;;;;9.60;4.30;;;;;;;13.31;82.76;101880.22;21027087;27;20232;-61
2021/10/07 15:39:53;;;;;;;8.23;4.47;;;;;;;12.83;87.05;101894.22;20991329;27;20276;-63
2021/10/07 15:50:12;;;;;;;8.93;4.40;;;;;;;12.34;76.79;101891.19;20961974;28;20222;-62
2021/10/07 16:00:20;;;;;;;7.00;4.50;;;;;;;12.09;89.21;101901.28;20875296;28;20314;-61
2021/10/07 16:10:25;;;;;;;12.20;4.40;;;;;;;11.65;91.13;101917.47;20858672;28;20231;-60
2021/10/07 16:20:28;;;;;;;10.20;4.87;;;;;;;11.21;96.48;101921.19;20898924;28;20640;-62
2021/10/07 16:30:35;;;;;;;9.10;5.70;;;;;;;10.89;95.00;101936.69;20856551;28;20246;-60
2021/10/07 16:40:42;;;;;;;13.20;6.00;;;;;;;10.64;99.83;101943.91;20818809;28;20231;-59
2021/10/07 16:50:50;;;;;;;9.30;5.77;;;;;;;10.38;100.00;101956.47;20829941;28;20328;-59
2021/10/07 17:00:56;;;;;;;10.57;6.33;;;;;;;10.24;100.00;101969.47;20835939;28;20326;-61
2021/10/07 17:11:04;;;;;;;8.67;5.80;;;;;;;9.82;100.00;101966.47;20860174;28;20230;-60
2021/10/07 17:31:12;;;;;;;12.63;7.30;;;;;;;9.46;100.00;101983.72;20970648;27;20700;-60
2021/10/07 17:41:21;;;;;;;13.03;6.50;;;;;;;9.35;100.00;101986.75;20899811;28;20232;-59
2021/10/07 17:51:27;;;;;;;12.57;6.47;;;;;;;9.30;100.00;101999.31;21009298;28;20612;-58
2021/10/07 18:01:39;;;;;;;12.33;5.87;;;;;;;9.40;100.00;102003.47;21004019;28;20229;-56
2021/10/07 18:11:50;;;;;;;8.80;6.10;;;;;;;9.36;100.00;102020.47;21030259;28;20229;-58
2021/10/07 18:22:06;;;;;;;10.17;5.67;;;;;;;9.32;100.00;102013.47;21015955;28;20236;-57
2021/10/07 18:32:17;;;;;;;10.00;5.60;;;;;;;9.21;100.00;102004.94;21006021;28;20226;-56
2021/10/07 18:42:24;;;;;;;8.30;5.33;;;;;;;9.12;100.00;102022.09;21058700;22;20237;-56
2021/10/07 18:52:37;;;;;;;8.77;5.47;;;;;;;9.01;100.00;102030.44;21074886;27;20304;-55
2021/10/07 19:02:41;;;;;;;11.20;5.90;;;;;;;8.99;100.00;102026.94;21085885;27;21005;-62
2021/10/07 19:12:47;;;;;;;9.60;5.57;;;;;;;9.02;100.00;102028.63;21065879;28;20231;-57
2021/10/07 19:22:53;;;;;;;14.17;6.03;;;;;;;9.11;100.00;102032.81;21065367;27;20233;-58
2021/10/07 19:33:00;;;;;;;7.93;5.97;;;;;;;8.92;100.00;102036.03;21073782;27;20247;-57
2021/10/07 19:43:03;;;;;;;8.37;5.00;;;;;;;8.77;100.00;102036.50;21041294;28;20231;-58
2021/10/07 19:53:08;;;;;;;12.77;6.70;;;;;;;8.60;99.02;102028.09;21069000;27;20228;-57
2021/10/07 20:03:10;;;;;;;10.73;5.77;;;;;;;8.59;100.00;102031.69;21061676;28;20323;-57
2021/10/07 20:13:15;;;;;;;9.87;5.30;;;;;;;8.55;100.00;102030.03;21083361;28;20234;-58
2021/10/07 20:23:19;;;;;;;8.80;5.20;;;;;;;8.39;100.00;102034.03;21055544;27;20714;-60
2021/10/07 20:33:53;;;;;;;9.60;5.60;;;;;;;8.19;100.00;102043.41;21074000;28;20314;-59
2021/10/07 20:44:05;;;;;;;8.93;5.00;;;;;;;8.07;100.00;102050.84;21062525;28;20236;-59
2021/10/07 20:54:19;;;;;;;7.80;5.13;;;;;;;7.86;100.00;102054.91;21074561;27;20231;-59
2021/10/07 21:14:23;;;;;;;8.80;5.83;;;;;;;7.40;100.00;102064.00;21044192;27;20551;-61
2021/10/07 21:24:26;;;;;;;8.30;6.23;;;;;;;7.12;100.00;102071.75;21130962;27;20652;-61
2021/10/07 21:34:29;;;;;;;8.23;5.80;;;;;;;6.96;100.00;102074.75;21107287;27;20221;-59
2021/10/07 21:44:32;;;;;;;8.03;5.60;;;;;;;6.79;100.00;102075.09;21129901;27;20221;-66
2021/10/07 21:54:35;;;;;;;15.13;6.80;;;;;;;6.63;100.00;102077.19;21104712;27;20225;-60
2021/10/07 22:04:38;;;;;;;6.37;5.33;;;;;;;6.64;100.00;102083.38;21149616;27;20308;-59
2021/10/07 22:14:41;;;;;;;8.37;5.37;;;;;;;6.59;100.00;102085.25;21109060;27;20232;-60
2021/10/07 22:24:44;;;;;;;10.67;5.83;;;;;;;6.51;100.00;102088.06;21071083;27;20234;-62
2021/10/07 22:34:47;;;;;;;7.60;5.33;;;;;;;6.43;100.00;102089.94;21058954;27;20329;-60
2021/10/07 22:44:50;;;;;;;8.27;5.27;;;;;;;6.30;100.00;102088.44;21056730;27;20229;-60
2021/10/07 22:54:53;;;;;;;6.90;5.03;;;;;;;6.17;100.00;102095.72;21065944;27;20352;-59
2021/10/07 23:04:56;;;;;;;9.03;5.30;;;;;;;6.09;100.00;102097.66;21046079;27;20222;-60
2021/10/07 23:14:59;;;;;;;9.20;5.50;;;;;;;5.99;100.00;102111.97;21066514;27;20222;-60
2021/10/07 23:25:05;;;;;;;6.90;5.17;;;;;;;5.86;100.00;102113.91;21042516;27;20292;-60
2021/10/07 23:35:09;;;;;;;7.47;4.70;;;;;;;5.68;100.00;102112.41;21063962;27;20240;-60
2021/10/07 23:45:11;;;;;;;10.27;6.00;;;;;;;5.57;100.00;102116.13;21044246;27;20765;-59
2021/10/07 23:55:15;;;;;;;7.33;5.50;;;;;;;5.41;100.00;102115.47;21054988;28;20236;-58
